sensor_id;sensor_type;location;lat;lon;timestamp;P1;durP1;ratioP1;P2;durP2;ratioP2
20832;SDS011;56075;51.264;7.150;2023-12-20T00:01:12;13.00;;;3.20;;
20832;SDS011;56075;51.264;7.150;2023-12-20T00:03:43;10.87;;;2.70;;
20832;SDS011;56075;51.264;7.150;2023-12-20T00:06:14;11.93;;;3.00;;
20832;SDS011;56075;51.264;7.150;2023-12-20T00:08:45;14.00;;;3.07;;
20832;SDS011;56075;51.264;7.150;2023-12-20T00:11:16;14.73;;;3.40;;
20832;SDS011;56075;51.264;7.150;2023-12-20T00:13:48;14.40;;;4.17;;
20832;SDS011;56075;51.264;7.150;2023-12-20T00:16:20;18.87;;;4.13;;
20832;SDS011;56075;51.264;7.150;2023-12-20T00:18:52;20.10;;;4.80;;
20832;SDS011;56075;51.264;7.150;2023-12-20T00:21:24;21.00;;;4.57;;
20832;SDS011;56075;51.264;7.150;2023-12-20T00:23:55;22.97;;;4.87;;
20832;SDS011;56075;51.264;7.150;2023-12-20T00:26:26;22.20;;;5.10;;
20832;SDS011;56075;51.264;7.150;2023-12-20T00:28:58;27.53;;;5.93;;
20832;SDS011;56075;51.264;7.150;2023-12-20T00:31:29;22.43;;;6.23;;
20832;SDS011;56075;51.264;7.150;2023-12-20T00:34:01;22.40;;;5.80;;
20832;SDS011;56075;51.264;7.150;2023-12-20T00:36:32;20.80;;;6.40;;
20832;SDS011;56075;51.264;7.150;2023-12-20T00:39:03;25.70;;;7.23;;
20832;SDS011;56075;51.264;7.150;2023-12-20T00:41:35;29.53;;;7.47;;
20832;SDS011;56075;51.264;7.150;2023-12-20T00:44:06;31.53;;;8.00;;
20832;SDS011;56075;51.264;7.150;2023-12-20T00:46:37;30.57;;;8.00;;
20832;SDS011;56075;51.264;7.150;2023-12-20T00:49:08;32.60;;;8.60;;
20832;SDS011;56075;51.264;7.150;2023-12-20T00:51:40;29.97;;;8.13;;
20832;SDS011;56075;51.264;7.150;2023-12-20T00:54:11;38.50;;;8.97;;
20832;SDS011;56075;51.264;7.150;2023-12-20T00:56:42;45.80;;;9.10;;
20832;SDS011;56075;51.264;7.150;2023-12-20T00:59:13;43.40;;;9.20;;
20832;SDS011;56075;51.264;7.150;2023-12-20T01:01:46;37.93;;;9.60;;
20832;SDS011;56075;51.264;7.150;2023-12-20T01:04:17;39.77;;;8.90;;
20832;SDS011;56075;51.264;7.150;2023-12-20T01:06:48;32.07;;;8.33;;
20832;SDS011;56075;51.264;7.150;2023-12-20T01:09:19;37.57;;;9.10;;
20832;SDS011;56075;51.264;7.150;2023-12-20T01:11:53;35.57;;;8.20;;
20832;SDS011;56075;51.264;7.150;2023-12-20T01:14:25;34.70;;;9.37;;
20832;SDS011;56075;51.264;7.150;2023-12-20T01:16:56;30.23;;;9.37;;
20832;SDS011;56075;51.264;7.150;2023-12-20T01:19:27;29.03;;;8.43;;
20832;SDS011;56075;51.264;7.150;2023-12-20T01:21:59;32.13;;;8.47;;
20832;SDS011;56075;51.264;7.150;2023-12-20T01:24:30;34.67;;;8.27;;
20832;SDS011;56075;51.264;7.150;2023-12-20T01:27:02;32.00;;;8.87;;
20832;SDS011;56075;51.264;7.150;2023-12-20T01:29:33;30.17;;;8.40;;
20832;SDS011;56075;51.264;7.150;2023-12-20T01:32:04;34.57;;;8.67;;
20832;SDS011;56075;51.264;7.150;2023-12-20T01:34:36;40.23;;;9.53;;
20832;SDS011;56075;51.264;7.150;2023-12-20T01:37:07;40.30;;;9.30;;
20832;SDS011;56075;51.264;7.150;2023-12-20T01:39:38;38.27;;;10.03;;
20832;SDS011;56075;51.264;7.150;2023-12-20T01:42:09;39.13;;;11.30;;
20832;SDS011;56075;51.264;7.150;2023-12-20T01:44:42;50.20;;;12.33;;
20832;SDS011;56075;51.264;7.150;2023-12-20T01:47:13;44.53;;;11.23;;
20832;SDS011;56075;51.264;7.150;2023-12-20T01:49:44;39.80;;;10.83;;
20832;SDS011;56075;51.264;7.150;2023-12-20T01:52:15;39.63;;;10.17;;
20832;SDS011;56075;51.264;7.150;2023-12-20T01:54:47;42.50;;;10.23;;
20832;SDS011;56075;51.264;7.150;2023-12-20T01:57:19;40.50;;;11.13;;
20832;SDS011;56075;51.264;7.150;2023-12-20T01:59:51;35.50;;;10.77;;
20832;SDS011;56075;51.264;7.150;2023-12-20T02:02:22;38.20;;;11.70;;
20832;SDS011;56075;51.264;7.150;2023-12-20T02:04:53;40.63;;;11.67;;
20832;SDS011;56075;51.264;7.150;2023-12-20T02:07:25;35.70;;;11.03;;
20832;SDS011;56075;51.264;7.150;2023-12-20T02:09:57;44.93;;;12.33;;
20832;SDS011;56075;51.264;7.150;2023-12-20T02:12:28;39.40;;;12.43;;
20832;SDS011;56075;51.264;7.150;2023-12-20T02:15:00;44.90;;;11.33;;
20832;SDS011;56075;51.264;7.150;2023-12-20T02:17:32;37.00;;;11.20;;
20832;SDS011;56075;51.264;7.150;2023-12-20T02:20:04;33.13;;;10.33;;
20832;SDS011;56075;51.264;7.150;2023-12-20T02:22:36;33.67;;;11.33;;
20832;SDS011;56075;51.264;7.150;2023-12-20T02:25:07;41.77;;;10.77;;
20832;SDS011;56075;51.264;7.150;2023-12-20T02:27:39;31.63;;;9.67;;
20832;SDS011;56075;51.264;7.150;2023-12-20T02:30:10;31.70;;;9.57;;
20832;SDS011;56075;51.264;7.150;2023-12-20T02:32:42;37.43;;;9.50;;
20832;SDS011;56075;51.264;7.150;2023-12-20T02:35:13;34.47;;;9.20;;
20832;SDS011;56075;51.264;7.150;2023-12-20T02:37:45;34.67;;;9.27;;
20832;SDS011;56075;51.264;7.150;2023-12-20T02:40:16;36.77;;;8.10;;
20832;SDS011;56075;51.264;7.150;2023-12-20T02:42:47;33.83;;;8.57;;
20832;SDS011;56075;51.264;7.150;2023-12-20T02:45:18;36.23;;;9.10;;
20832;SDS011;56075;51.264;7.150;2023-12-20T02:47:49;31.43;;;8.50;;
20832;SDS011;56075;51.264;7.150;2023-12-20T02:50:20;32.90;;;9.30;;
20832;SDS011;56075;51.264;7.150;2023-12-20T02:52:52;40.70;;;10.33;;
20832;SDS011;56075;51.264;7.150;2023-12-20T02:55:23;43.37;;;10.03;;
20832;SDS011;56075;51.264;7.150;2023-12-20T02:57:54;31.90;;;9.00;;
20832;SDS011;56075;51.264;7.150;2023-12-20T03:00:25;34.23;;;9.23;;
20832;SDS011;56075;51.264;7.150;2023-12-20T03:02:57;34.33;;;8.97;;
20832;SDS011;56075;51.264;7.150;2023-12-20T03:05:30;38.63;;;8.70;;
20832;SDS011;56075;51.264;7.150;2023-12-20T03:08:01;44.00;;;9.80;;
20832;SDS011;56075;51.264;7.150;2023-12-20T03:10:32;36.40;;;8.30;;
20832;SDS011;56075;51.264;7.150;2023-12-20T03:13:04;30.53;;;9.47;;
20832;SDS011;56075;51.264;7.150;2023-12-20T03:15:35;36.47;;;8.90;;
20832;SDS011;56075;51.264;7.150;2023-12-20T03:18:07;32.50;;;9.30;;
20832;SDS011;56075;51.264;7.150;2023-12-20T03:20:39;39.53;;;9.13;;
20832;SDS011;56075;51.264;7.150;2023-12-20T03:23:11;44.17;;;10.20;;
20832;SDS011;56075;51.264;7.150;2023-12-20T03:25:42;47.37;;;11.20;;
20832;SDS011;56075;51.264;7.150;2023-12-20T03:28:14;34.43;;;9.27;;
20832;SDS011;56075;51.264;7.150;2023-12-20T03:30:46;40.20;;;8.83;;
20832;SDS011;56075;51.264;7.150;2023-12-20T03:33:17;34.17;;;8.50;;
20832;SDS011;56075;51.264;7.150;2023-12-20T03:35:49;32.97;;;8.03;;
20832;SDS011;56075;51.264;7.150;2023-12-20T03:38:20;29.10;;;8.10;;
20832;SDS011;56075;51.264;7.150;2023-12-20T03:40:52;27.20;;;7.90;;
20832;SDS011;56075;51.264;7.150;2023-12-20T03:43:23;28.73;;;7.43;;
20832;SDS011;56075;51.264;7.150;2023-12-20T03:45:54;32.23;;;7.03;;
20832;SDS011;56075;51.264;7.150;2023-12-20T03:48:25;27.63;;;7.17;;
20832;SDS011;56075;51.264;7.150;2023-12-20T03:50:57;23.90;;;7.00;;
20832;SDS011;56075;51.264;7.150;2023-12-20T03:53:28;23.93;;;6.40;;
20832;SDS011;56075;51.264;7.150;2023-12-20T03:55:59;27.03;;;6.57;;
20832;SDS011;56075;51.264;7.150;2023-12-20T03:58:31;22.33;;;6.63;;
20832;SDS011;56075;51.264;7.150;2023-12-20T04:01:02;23.27;;;5.80;;
20832;SDS011;56075;51.264;7.150;2023-12-20T04:03:33;23.07;;;6.80;;
20832;SDS011;56075;51.264;7.150;2023-12-20T04:06:04;26.20;;;5.97;;
20832;SDS011;56075;51.264;7.150;2023-12-20T04:08:35;22.30;;;6.07;;
20832;SDS011;56075;51.264;7.150;2023-12-20T04:11:07;25.47;;;6.00;;
20832;SDS011;56075;51.264;7.150;2023-12-20T04:13:38;25.47;;;5.80;;
20832;SDS011;56075;51.264;7.150;2023-12-20T04:16:09;28.37;;;5.90;;
20832;SDS011;56075;51.264;7.150;2023-12-20T04:18:41;24.60;;;6.30;;
20832;SDS011;56075;51.264;7.150;2023-12-20T04:21:12;23.60;;;6.03;;
20832;SDS011;56075;51.264;7.150;2023-12-20T04:23:43;22.80;;;6.10;;
20832;SDS011;56075;51.264;7.150;2023-12-20T04:26:14;32.37;;;5.90;;
20832;SDS011;56075;51.264;7.150;2023-12-20T04:28:46;29.97;;;6.10;;
20832;SDS011;56075;51.264;7.150;2023-12-20T04:31:17;16.17;;;5.97;;
20832;SDS011;56075;51.264;7.150;2023-12-20T04:33:48;23.93;;;5.97;;
20832;SDS011;56075;51.264;7.150;2023-12-20T04:36:20;21.47;;;6.20;;
20832;SDS011;56075;51.264;7.150;2023-12-20T04:38:51;29.57;;;6.67;;
20832;SDS011;56075;51.264;7.150;2023-12-20T04:41:23;30.07;;;6.13;;
20832;SDS011;56075;51.264;7.150;2023-12-20T04:43:54;25.37;;;5.97;;
20832;SDS011;56075;51.264;7.150;2023-12-20T04:46:26;26.47;;;6.83;;
20832;SDS011;56075;51.264;7.150;2023-12-20T04:48:57;21.73;;;6.50;;
20832;SDS011;56075;51.264;7.150;2023-12-20T04:51:28;24.97;;;6.83;;
20832;SDS011;56075;51.264;7.150;2023-12-20T04:54:00;38.00;;;7.23;;
20832;SDS011;56075;51.264;7.150;2023-12-20T04:56:32;27.00;;;7.43;;
20832;SDS011;56075;51.264;7.150;2023-12-20T04:59:03;33.13;;;7.47;;
20832;SDS011;56075;51.264;7.150;2023-12-20T05:01:34;26.27;;;7.60;;
20832;SDS011;56075;51.264;7.150;2023-12-20T05:04:05;30.27;;;7.03;;
20832;SDS011;56075;51.264;7.150;2023-12-20T05:06:37;22.90;;;7.07;;
20832;SDS011;56075;51.264;7.150;2023-12-20T05:09:08;29.60;;;6.80;;
20832;SDS011;56075;51.264;7.150;2023-12-20T05:11:39;25.17;;;6.73;;
20832;SDS011;56075;51.264;7.150;2023-12-20T05:14:10;26.43;;;6.90;;
20832;SDS011;56075;51.264;7.150;2023-12-20T05:16:42;26.30;;;6.60;;
20832;SDS011;56075;51.264;7.150;2023-12-20T05:19:13;32.87;;;7.23;;
20832;SDS011;56075;51.264;7.150;2023-12-20T05:21:45;25.47;;;7.53;;
20832;SDS011;56075;51.264;7.150;2023-12-20T05:24:16;21.30;;;5.80;;
20832;SDS011;56075;51.264;7.150;2023-12-20T05:26:48;27.73;;;6.40;;
20832;SDS011;56075;51.264;7.150;2023-12-20T05:29:19;25.10;;;6.80;;
20832;SDS011;56075;51.264;7.150;2023-12-20T05:31:50;24.17;;;6.60;;
20832;SDS011;56075;51.264;7.150;2023-12-20T05:34:21;27.10;;;6.50;;
20832;SDS011;56075;51.264;7.150;2023-12-20T05:36:53;29.20;;;7.43;;
20832;SDS011;56075;51.264;7.150;2023-12-20T05:39:24;31.97;;;7.63;;
20832;SDS011;56075;51.264;7.150;2023-12-20T05:41:56;27.17;;;6.90;;
20832;SDS011;56075;51.264;7.150;2023-12-20T05:44:27;28.13;;;6.97;;
20832;SDS011;56075;51.264;7.150;2023-12-20T05:46:58;33.30;;;7.43;;
20832;SDS011;56075;51.264;7.150;2023-12-20T05:49:30;33.13;;;7.43;;
20832;SDS011;56075;51.264;7.150;2023-12-20T05:52:02;33.87;;;7.33;;
20832;SDS011;56075;51.264;7.150;2023-12-20T05:54:33;21.47;;;6.47;;
20832;SDS011;56075;51.264;7.150;2023-12-20T05:57:05;32.03;;;7.70;;
20832;SDS011;56075;51.264;7.150;2023-12-20T05:59:36;30.33;;;6.30;;
20832;SDS011;56075;51.264;7.150;2023-12-20T06:02:08;23.17;;;6.07;;
20832;SDS011;56075;51.264;7.150;2023-12-20T06:04:41;22.37;;;5.83;;
20832;SDS011;56075;51.264;7.150;2023-12-20T06:07:14;28.93;;;5.70;;
20832;SDS011;56075;51.264;7.150;2023-12-20T06:09:45;33.73;;;5.97;;
20832;SDS011;56075;51.264;7.150;2023-12-20T06:12:17;23.43;;;5.70;;
20832;SDS011;56075;51.264;7.150;2023-12-20T06:14:48;29.40;;;5.27;;
20832;SDS011;56075;51.264;7.150;2023-12-20T06:17:20;20.90;;;5.00;;
20832;SDS011;56075;51.264;7.150;2023-12-20T06:19:57;24.77;;;5.80;;
20832;SDS011;56075;51.264;7.150;2023-12-20T06:22:30;30.80;;;6.60;;
20832;SDS011;56075;51.264;7.150;2023-12-20T06:25:02;20.20;;;5.50;;
20832;SDS011;56075;51.264;7.150;2023-12-20T06:27:33;25.03;;;6.67;;
20832;SDS011;56075;51.264;7.150;2023-12-20T06:30:05;24.20;;;6.33;;
20832;SDS011;56075;51.264;7.150;2023-12-20T06:32:37;32.83;;;6.70;;
20832;SDS011;56075;51.264;7.150;2023-12-20T06:35:09;24.67;;;6.70;;
20832;SDS011;56075;51.264;7.150;2023-12-20T06:37:41;27.20;;;7.40;;
20832;SDS011;56075;51.264;7.150;2023-12-20T06:40:13;30.20;;;7.07;;
20832;SDS011;56075;51.264;7.150;2023-12-20T06:42:44;31.43;;;7.10;;
20832;SDS011;56075;51.264;7.150;2023-12-20T06:45:15;25.50;;;6.87;;
20832;SDS011;56075;51.264;7.150;2023-12-20T06:47:47;21.10;;;6.93;;
20832;SDS011;56075;51.264;7.150;2023-12-20T06:50:18;36.53;;;7.40;;
20832;SDS011;56075;51.264;7.150;2023-12-20T06:52:49;40.83;;;7.63;;
20832;SDS011;56075;51.264;7.150;2023-12-20T06:55:21;36.10;;;7.50;;
20832;SDS011;56075;51.264;7.150;2023-12-20T06:57:52;29.77;;;7.17;;
20832;SDS011;56075;51.264;7.150;2023-12-20T07:00:23;27.77;;;6.63;;
20832;SDS011;56075;51.264;7.150;2023-12-20T07:02:55;23.50;;;7.10;;
20832;SDS011;56075;51.264;7.150;2023-12-20T07:05:27;31.43;;;6.33;;
20832;SDS011;56075;51.264;7.150;2023-12-20T07:07:58;37.60;;;7.63;;
20832;SDS011;56075;51.264;7.150;2023-12-20T07:10:29;27.93;;;6.40;;
20832;SDS011;56075;51.264;7.150;2023-12-20T07:13:00;32.07;;;5.80;;
20832;SDS011;56075;51.264;7.150;2023-12-20T07:15:32;30.20;;;6.20;;
20832;SDS011;56075;51.264;7.150;2023-12-20T07:18:03;26.43;;;6.40;;
20832;SDS011;56075;51.264;7.150;2023-12-20T07:20:35;28.97;;;6.03;;
20832;SDS011;56075;51.264;7.150;2023-12-20T07:23:07;21.67;;;5.83;;
20832;SDS011;56075;51.264;7.150;2023-12-20T07:25:38;33.13;;;6.60;;
20832;SDS011;56075;51.264;7.150;2023-12-20T07:28:09;28.67;;;5.93;;
20832;SDS011;56075;51.264;7.150;2023-12-20T07:30:41;25.87;;;5.63;;
20832;SDS011;56075;51.264;7.150;2023-12-20T07:33:12;21.13;;;4.83;;
20832;SDS011;56075;51.264;7.150;2023-12-20T07:35:44;28.30;;;5.87;;
20832;SDS011;56075;51.264;7.150;2023-12-20T07:38:15;28.03;;;5.67;;
20832;SDS011;56075;51.264;7.150;2023-12-20T07:40:46;28.30;;;6.13;;
20832;SDS011;56075;51.264;7.150;2023-12-20T07:43:18;24.97;;;5.63;;
20832;SDS011;56075;51.264;7.150;2023-12-20T07:45:49;26.27;;;5.10;;
20832;SDS011;56075;51.264;7.150;2023-12-20T07:48:22;22.40;;;6.00;;
20832;SDS011;56075;51.264;7.150;2023-12-20T07:50:53;22.73;;;6.97;;
20832;SDS011;56075;51.264;7.150;2023-12-20T07:53:24;21.93;;;5.67;;
20832;SDS011;56075;51.264;7.150;2023-12-20T07:55:55;25.17;;;5.40;;
20832;SDS011;56075;51.264;7.150;2023-12-20T07:58:27;32.47;;;6.10;;
20832;SDS011;56075;51.264;7.150;2023-12-20T08:01:00;18.93;;;5.20;;
20832;SDS011;56075;51.264;7.150;2023-12-20T08:03:31;32.53;;;6.00;;
20832;SDS011;56075;51.264;7.150;2023-12-20T08:06:03;28.53;;;6.20;;
20832;SDS011;56075;51.264;7.150;2023-12-20T08:08:34;21.47;;;4.87;;
20832;SDS011;56075;51.264;7.150;2023-12-20T08:11:05;22.33;;;5.70;;
20832;SDS011;56075;51.264;7.150;2023-12-20T08:13:37;21.97;;;5.20;;
20832;SDS011;56075;51.264;7.150;2023-12-20T08:16:08;21.40;;;5.10;;
20832;SDS011;56075;51.264;7.150;2023-12-20T08:18:40;26.10;;;5.30;;
20832;SDS011;56075;51.264;7.150;2023-12-20T08:21:12;22.93;;;5.60;;
20832;SDS011;56075;51.264;7.150;2023-12-20T08:23:43;24.03;;;4.90;;
20832;SDS011;56075;51.264;7.150;2023-12-20T08:26:18;30.00;;;5.80;;
20832;SDS011;56075;51.264;7.150;2023-12-20T08:28:50;21.57;;;4.90;;
20832;SDS011;56075;51.264;7.150;2023-12-20T08:31:22;28.93;;;6.47;;
20832;SDS011;56075;51.264;7.150;2023-12-20T08:33:54;18.50;;;4.80;;
20832;SDS011;56075;51.264;7.150;2023-12-20T08:36:25;30.03;;;5.90;;
20832;SDS011;56075;51.264;7.150;2023-12-20T08:38:56;20.50;;;5.30;;
20832;SDS011;56075;51.264;7.150;2023-12-20T08:41:27;24.30;;;6.53;;
20832;SDS011;56075;51.264;7.150;2023-12-20T08:43:58;20.33;;;5.33;;
20832;SDS011;56075;51.264;7.150;2023-12-20T08:46:30;21.27;;;5.00;;
20832;SDS011;56075;51.264;7.150;2023-12-20T08:49:01;25.47;;;5.27;;
20832;SDS011;56075;51.264;7.150;2023-12-20T08:51:34;28.43;;;5.70;;
20832;SDS011;56075;51.264;7.150;2023-12-20T08:54:05;25.17;;;5.37;;
20832;SDS011;56075;51.264;7.150;2023-12-20T08:56:38;55.50;;;6.53;;
20832;SDS011;56075;51.264;7.150;2023-12-20T08:59:09;21.30;;;4.80;;
20832;SDS011;56075;51.264;7.150;2023-12-20T09:01:41;23.17;;;5.03;;
20832;SDS011;56075;51.264;7.150;2023-12-20T09:04:12;22.33;;;4.80;;
20832;SDS011;56075;51.264;7.150;2023-12-20T09:06:44;18.73;;;4.30;;
20832;SDS011;56075;51.264;7.150;2023-12-20T09:09:15;18.37;;;4.60;;
20832;SDS011;56075;51.264;7.150;2023-12-20T09:11:46;21.13;;;4.03;;
20832;SDS011;56075;51.264;7.150;2023-12-20T09:14:20;19.77;;;3.90;;
20832;SDS011;56075;51.264;7.150;2023-12-20T09:16:52;20.80;;;3.73;;
20832;SDS011;56075;51.264;7.150;2023-12-20T09:19:26;81.23;;;8.93;;
20832;SDS011;56075;51.264;7.150;2023-12-20T09:21:57;21.97;;;4.63;;
20832;SDS011;56075;51.264;7.150;2023-12-20T09:24:29;16.83;;;3.90;;
20832;SDS011;56075;51.264;7.150;2023-12-20T09:27:01;13.63;;;4.00;;
20832;SDS011;56075;51.264;7.150;2023-12-20T09:29:33;19.43;;;3.97;;
20832;SDS011;56075;51.264;7.150;2023-12-20T09:32:04;19.40;;;3.87;;
20832;SDS011;56075;51.264;7.150;2023-12-20T09:34:35;39.33;;;6.10;;
20832;SDS011;56075;51.264;7.150;2023-12-20T09:37:08;20.77;;;4.80;;
20832;SDS011;56075;51.264;7.150;2023-12-20T09:39:40;22.73;;;4.67;;
20832;SDS011;56075;51.264;7.150;2023-12-20T09:42:11;22.80;;;4.50;;
20832;SDS011;56075;51.264;7.150;2023-12-20T09:44:43;20.43;;;4.63;;
20832;SDS011;56075;51.264;7.150;2023-12-20T09:47:15;14.47;;;4.40;;
20832;SDS011;56075;51.264;7.150;2023-12-20T09:49:50;16.87;;;3.70;;
20832;SDS011;56075;51.264;7.150;2023-12-20T09:52:22;20.73;;;4.87;;
20832;SDS011;56075;51.264;7.150;2023-12-20T09:54:55;17.60;;;3.77;;
20832;SDS011;56075;51.264;7.150;2023-12-20T09:57:27;25.07;;;4.20;;
20832;SDS011;56075;51.264;7.150;2023-12-20T09:59:59;13.97;;;3.63;;
20832;SDS011;56075;51.264;7.150;2023-12-20T10:02:31;19.57;;;3.83;;
20832;SDS011;56075;51.264;7.150;2023-12-20T10:05:02;18.93;;;3.73;;
20832;SDS011;56075;51.264;7.150;2023-12-20T10:07:36;24.90;;;4.00;;
20832;SDS011;56075;51.264;7.150;2023-12-20T10:10:07;19.23;;;3.50;;
20832;SDS011;56075;51.264;7.150;2023-12-20T10:12:39;18.40;;;4.00;;
20832;SDS011;56075;51.264;7.150;2023-12-20T10:15:10;22.93;;;3.83;;
20832;SDS011;56075;51.264;7.150;2023-12-20T10:17:41;15.57;;;3.20;;
20832;SDS011;56075;51.264;7.150;2023-12-20T10:20:13;23.13;;;3.33;;
20832;SDS011;56075;51.264;7.150;2023-12-20T10:22:44;20.37;;;3.20;;
20832;SDS011;56075;51.264;7.150;2023-12-20T10:25:15;24.60;;;3.73;;
20832;SDS011;56075;51.264;7.150;2023-12-20T10:27:49;17.17;;;3.50;;
20832;SDS011;56075;51.264;7.150;2023-12-20T10:30:20;17.30;;;3.67;;
20832;SDS011;56075;51.264;7.150;2023-12-20T10:32:52;25.23;;;3.40;;
20832;SDS011;56075;51.264;7.150;2023-12-20T10:35:23;13.83;;;3.30;;
20832;SDS011;56075;51.264;7.150;2023-12-20T10:37:55;20.23;;;3.47;;
20832;SDS011;56075;51.264;7.150;2023-12-20T10:40:27;16.60;;;3.30;;
20832;SDS011;56075;51.264;7.150;2023-12-20T10:43:00;18.67;;;3.67;;
20832;SDS011;56075;51.264;7.150;2023-12-20T10:45:33;14.43;;;3.17;;
20832;SDS011;56075;51.264;7.150;2023-12-20T10:48:05;20.00;;;4.00;;
20832;SDS011;56075;51.264;7.150;2023-12-20T10:50:37;17.83;;;3.43;;
20832;SDS011;56075;51.264;7.150;2023-12-20T10:53:12;18.77;;;3.27;;
20832;SDS011;56075;51.264;7.150;2023-12-20T10:55:44;18.43;;;3.37;;
20832;SDS011;56075;51.264;7.150;2023-12-20T10:58:17;22.73;;;3.40;;
20832;SDS011;56075;51.264;7.150;2023-12-20T11:00:50;20.63;;;3.30;;
20832;SDS011;56075;51.264;7.150;2023-12-20T11:03:26;16.13;;;4.10;;
20832;SDS011;56075;51.264;7.150;2023-12-20T11:06:00;18.10;;;3.60;;
20832;SDS011;56075;51.264;7.150;2023-12-20T11:08:38;18.73;;;3.10;;
20832;SDS011;56075;51.264;7.150;2023-12-20T11:11:35;16.07;;;3.43;;
20832;SDS011;56075;51.264;7.150;2023-12-20T11:14:11;16.43;;;3.60;;
20832;SDS011;56075;51.264;7.150;2023-12-20T11:16:47;22.73;;;3.80;;
20832;SDS011;56075;51.264;7.150;2023-12-20T11:19:19;12.97;;;3.17;;
20832;SDS011;56075;51.264;7.150;2023-12-20T11:21:50;19.77;;;3.67;;
20832;SDS011;56075;51.264;7.150;2023-12-20T11:24:21;15.87;;;3.40;;
20832;SDS011;56075;51.264;7.150;2023-12-20T11:26:56;16.00;;;3.20;;
20832;SDS011;56075;51.264;7.150;2023-12-20T11:34:59;19.17;;;4.00;;
20832;SDS011;56075;51.264;7.150;2023-12-20T11:37:31;15.80;;;3.37;;
20832;SDS011;56075;51.264;7.150;2023-12-20T11:40:06;18.83;;;3.80;;
20832;SDS011;56075;51.264;7.150;2023-12-20T11:42:42;21.00;;;3.60;;
20832;SDS011;56075;51.264;7.150;2023-12-20T11:45:14;19.93;;;3.60;;
20832;SDS011;56075;51.264;7.150;2023-12-20T11:47:47;16.60;;;3.57;;
20832;SDS011;56075;51.264;7.150;2023-12-20T11:50:20;17.27;;;3.87;;
20832;SDS011;56075;51.264;7.150;2023-12-20T11:52:52;18.50;;;3.50;;
20832;SDS011;56075;51.264;7.150;2023-12-20T11:55:25;21.10;;;4.30;;
20832;SDS011;56075;51.264;7.150;2023-12-20T11:57:57;17.60;;;4.07;;
20832;SDS011;56075;51.264;7.150;2023-12-20T12:00:28;17.90;;;4.00;;
20832;SDS011;56075;51.264;7.150;2023-12-20T12:03:00;21.17;;;4.50;;
20832;SDS011;56075;51.264;7.150;2023-12-20T12:05:33;18.27;;;4.30;;
20832;SDS011;56075;51.264;7.150;2023-12-20T12:08:05;14.97;;;4.17;;
20832;SDS011;56075;51.264;7.150;2023-12-20T12:10:36;16.67;;;4.00;;
20832;SDS011;56075;51.264;7.150;2023-12-20T12:13:07;15.03;;;4.07;;
20832;SDS011;56075;51.264;7.150;2023-12-20T12:15:40;15.53;;;4.00;;
20832;SDS011;56075;51.264;7.150;2023-12-20T12:18:15;16.73;;;3.87;;
20832;SDS011;56075;51.264;7.150;2023-12-20T12:20:47;20.80;;;4.33;;
20832;SDS011;56075;51.264;7.150;2023-12-20T12:23:25;18.40;;;4.23;;
20832;SDS011;56075;51.264;7.150;2023-12-20T12:25:56;16.87;;;4.10;;
20832;SDS011;56075;51.264;7.150;2023-12-20T12:28:28;18.60;;;3.50;;
20832;SDS011;56075;51.264;7.150;2023-12-20T12:31:00;13.67;;;3.50;;
20832;SDS011;56075;51.264;7.150;2023-12-20T12:33:32;17.37;;;4.57;;
20832;SDS011;56075;51.264;7.150;2023-12-20T12:36:03;26.27;;;4.30;;
20832;SDS011;56075;51.264;7.150;2023-12-20T12:38:37;18.87;;;4.43;;
20832;SDS011;56075;51.264;7.150;2023-12-20T12:41:08;23.47;;;4.70;;
20832;SDS011;56075;51.264;7.150;2023-12-20T12:43:41;16.93;;;4.57;;
20832;SDS011;56075;51.264;7.150;2023-12-20T12:46:13;17.67;;;5.00;;
20832;SDS011;56075;51.264;7.150;2023-12-20T12:48:44;18.20;;;4.70;;
20832;SDS011;56075;51.264;7.150;2023-12-20T12:51:16;24.43;;;5.23;;
20832;SDS011;56075;51.264;7.150;2023-12-20T12:53:47;17.67;;;5.37;;
20832;SDS011;56075;51.264;7.150;2023-12-20T12:56:20;17.57;;;4.90;;
20832;SDS011;56075;51.264;7.150;2023-12-20T12:58:52;21.60;;;5.50;;
20832;SDS011;56075;51.264;7.150;2023-12-20T13:01:24;18.90;;;4.93;;
20832;SDS011;56075;51.264;7.150;2023-12-20T13:03:56;23.70;;;5.67;;
20832;SDS011;56075;51.264;7.150;2023-12-20T13:06:27;25.80;;;5.53;;
20832;SDS011;56075;51.264;7.150;2023-12-20T13:08:59;23.20;;;5.80;;
20832;SDS011;56075;51.264;7.150;2023-12-20T13:11:31;24.47;;;5.03;;
20832;SDS011;56075;51.264;7.150;2023-12-20T13:14:02;16.13;;;5.33;;
20832;SDS011;56075;51.264;7.150;2023-12-20T13:16:34;20.20;;;5.37;;
20832;SDS011;56075;51.264;7.150;2023-12-20T13:19:06;22.33;;;5.30;;
20832;SDS011;56075;51.264;7.150;2023-12-20T13:21:37;18.97;;;5.10;;
20832;SDS011;56075;51.264;7.150;2023-12-20T13:24:09;18.27;;;5.37;;
20832;SDS011;56075;51.264;7.150;2023-12-20T13:26:40;15.83;;;5.57;;
20832;SDS011;56075;51.264;7.150;2023-12-20T13:29:12;21.90;;;5.77;;
20832;SDS011;56075;51.264;7.150;2023-12-20T13:31:43;24.60;;;5.77;;
20832;SDS011;56075;51.264;7.150;2023-12-20T13:34:14;21.47;;;5.47;;
20832;SDS011;56075;51.264;7.150;2023-12-20T13:36:47;22.67;;;6.20;;
20832;SDS011;56075;51.264;7.150;2023-12-20T13:39:21;25.23;;;6.80;;
20832;SDS011;56075;51.264;7.150;2023-12-20T13:41:52;24.10;;;6.20;;
20832;SDS011;56075;51.264;7.150;2023-12-20T13:44:24;17.90;;;6.33;;
20832;SDS011;56075;51.264;7.150;2023-12-20T13:46:55;25.93;;;6.87;;
20832;SDS011;56075;51.264;7.150;2023-12-20T13:49:27;30.67;;;7.07;;
20832;SDS011;56075;51.264;7.150;2023-12-20T13:51:58;24.93;;;7.33;;
20832;SDS011;56075;51.264;7.150;2023-12-20T13:54:30;25.63;;;7.87;;
20832;SDS011;56075;51.264;7.150;2023-12-20T13:57:01;23.93;;;8.10;;
20832;SDS011;56075;51.264;7.150;2023-12-20T13:59:33;26.73;;;8.83;;
20832;SDS011;56075;51.264;7.150;2023-12-20T14:02:06;20.70;;;7.73;;
20832;SDS011;56075;51.264;7.150;2023-12-20T14:04:37;23.73;;;8.00;;
20832;SDS011;56075;51.264;7.150;2023-12-20T14:07:10;19.23;;;8.03;;
20832;SDS011;56075;51.264;7.150;2023-12-20T14:09:41;25.47;;;7.67;;
20832;SDS011;56075;51.264;7.150;2023-12-20T14:12:15;25.17;;;7.77;;
20832;SDS011;56075;51.264;7.150;2023-12-20T14:14:47;26.37;;;8.13;;
20832;SDS011;56075;51.264;7.150;2023-12-20T14:17:19;20.00;;;6.93;;
20832;SDS011;56075;51.264;7.150;2023-12-20T14:19:50;19.30;;;8.07;;
20832;SDS011;56075;51.264;7.150;2023-12-20T14:22:22;23.90;;;7.93;;
20832;SDS011;56075;51.264;7.150;2023-12-20T14:24:55;23.70;;;7.20;;
20832;SDS011;56075;51.264;7.150;2023-12-20T14:27:27;23.87;;;7.57;;
20832;SDS011;56075;51.264;7.150;2023-12-20T14:29:59;27.50;;;7.87;;
20832;SDS011;56075;51.264;7.150;2023-12-20T14:32:31;22.13;;;7.77;;
20832;SDS011;56075;51.264;7.150;2023-12-20T14:35:02;28.20;;;8.63;;
20832;SDS011;56075;51.264;7.150;2023-12-20T14:37:35;25.27;;;7.87;;
20832;SDS011;56075;51.264;7.150;2023-12-20T14:40:11;26.97;;;6.80;;
20832;SDS011;56075;51.264;7.150;2023-12-20T14:42:48;28.00;;;8.27;;
20832;SDS011;56075;51.264;7.150;2023-12-20T14:45:20;23.80;;;7.40;;
20832;SDS011;56075;51.264;7.150;2023-12-20T14:47:51;22.43;;;7.43;;
20832;SDS011;56075;51.264;7.150;2023-12-20T14:50:22;30.30;;;7.70;;
20832;SDS011;56075;51.264;7.150;2023-12-20T14:52:54;26.83;;;7.63;;
20832;SDS011;56075;51.264;7.150;2023-12-20T14:55:26;24.73;;;7.40;;
20832;SDS011;56075;51.264;7.150;2023-12-20T14:57:59;20.80;;;7.13;;
20832;SDS011;56075;51.264;7.150;2023-12-20T15:00:31;24.10;;;7.27;;
20832;SDS011;56075;51.264;7.150;2023-12-20T15:03:02;27.57;;;8.07;;
20832;SDS011;56075;51.264;7.150;2023-12-20T15:05:35;20.97;;;6.63;;